Accueil
METAR-TAF:

METAR-TAF

Aéroports :

Malatya, Turquie

latitude: 38-26N, longitude: 038-05E, altitude: 862 m

Observation

Le bulletin a été fait il y a 32 minutes, à 12:50 UTC
Vent 7 kt de nord/nord-ouest
Température 4°C
Humidité 35%
Pression 1023 hPa
Visibilité 10 km ou plus
pas de nuages en-dessous de 1500 mètres et pas de cumulonimbus.

METAR: LTAT 181250Z 34007KT CAVOK 04/M10 Q1023 NOSIG RMK RWY03 26005KT 210V310

Heure: 16:22 (13:22 UTC)

Prévision

Le bulletin a été fait il y a 2 heures et 42 minutes, à 10:40 UTC
Prévision valable du 18 à 12 UTC au 19 à 12 UTC
Vent 9 kt de ouest/nord-ouest
Visibilité 10 km ou plus
pas de nuages en-dessous de 1500 mètres et pas de cumulonimbus.

TAF: LTAT 181040Z 1812/1912 29009KT CAVOK

Observations et prévisions météorologiques de plus de 4000 aéroports (messages METAR et TAF).

Les stations disponibles sont représentées par des disques jaunes et rouges sur la carte.

Passer la souris dessus pour voir le nom de la station.

Cliquer dessus pour voir les observations et prévisions météorologiques.

Pour changer de carte: cliquez sur les boutons verts avec une croix noire pour zoomer, sur le bouton vert avec un tiret pour effectuer un zoom arrière, ou sur les flèches vertes pour les cartes adjacentes.


METAR-TAF: